createdAt,value
2019-01-21T00:00:32.559Z,80.86
2019-01-21T00:02:59.399Z,80.74
2019-01-21T00:05:25.201Z,80.84
2019-01-21T00:07:51.039Z,80.89
2019-01-21T00:10:16.855Z,80.81
2019-01-21T00:12:43.817Z,80.73
2019-01-21T00:15:11.533Z,80.52
2019-01-21T00:17:38.418Z,80.41
2019-01-21T00:20:05.636Z,80.85
2019-01-21T00:22:31.575Z,81.27
2019-01-21T00:24:57.387Z,81.12
2019-01-21T00:27:23.216Z,81.09
2019-01-21T00:29:49.033Z,80.59
2019-01-21T00:32:14.894Z,80.27
2019-01-21T00:34:40.706Z,81.05
2019-01-21T00:37:08.481Z,80.95
2019-01-21T00:39:34.308Z,81.46
2019-01-21T00:42:00.138Z,81.29
2019-01-21T00:44:26.066Z,81.06
2019-01-21T00:46:57.237Z,80.94
2019-01-21T00:49:23.080Z,81.73
2019-01-21T00:51:49.005Z,81.25
2019-01-21T00:54:14.823Z,81.09
2019-01-21T00:56:40.679Z,80.92
2019-01-21T00:59:08.175Z,81.04
2019-01-21T01:01:34.227Z,81.07
2019-01-21T01:04:00.096Z,80.99
2019-01-21T01:06:25.900Z,81.34
2019-01-21T01:08:53.033Z,81.32
2019-01-21T01:11:18.921Z,80.80
2019-01-21T01:13:47.227Z,80.72
2019-01-21T01:16:13.034Z,80.61
2019-01-21T01:18:38.855Z,81.17
2019-01-21T01:21:05.899Z,81.26
2019-01-21T01:23:31.734Z,81.06
2019-01-21T01:25:57.575Z,81.01
2019-01-21T01:28:26.010Z,81.44
2019-01-21T01:30:51.814Z,80.85
2019-01-21T01:33:17.654Z,80.46
2019-01-21T01:35:43.469Z,80.56
2019-01-21T01:38:12.073Z,80.67
2019-01-21T01:40:39.279Z,80.75
2019-01-21T01:43:05.035Z,80.82
2019-01-21T01:45:31.392Z,80.90
2019-01-21T01:47:58.825Z,80.84
2019-01-21T01:50:24.725Z,81.09
2019-01-21T01:52:50.555Z,80.10
2019-01-21T01:55:16.389Z,80.78
2019-01-21T01:57:42.205Z,80.62
2019-01-21T02:00:13.351Z,79.90
2019-01-21T02:02:39.491Z,80.38
2019-01-21T02:05:05.423Z,80.53
2019-01-21T02:07:31.231Z,80.19
2019-01-21T02:09:57.053Z,80.25
2019-01-21T02:12:22.895Z,80.67
2019-01-21T02:14:50.711Z,80.26
2019-01-21T02:17:16.982Z,80.57
2019-01-21T02:19:42.986Z,80.59
2019-01-21T02:22:12.427Z,80.63
2019-01-21T02:24:38.327Z,80.95
2019-01-21T02:27:04.154Z,80.92
2019-01-21T02:29:46.141Z,80.46
2019-01-21T02:32:15.805Z,80.19
2019-01-21T02:34:54.583Z,80.18
2019-01-21T02:37:30.003Z,80.60
2019-01-21T02:40:05.927Z,80.82
2019-01-21T02:42:40.161Z,80.67
2019-01-21T02:45:24.314Z,80.78
2019-01-21T02:48:03.279Z,80.47
2019-01-21T02:50:44.406Z,80.43
2019-01-21T02:53:20.123Z,80.78
2019-01-21T02:56:04.849Z,80.50
2019-01-21T02:58:37.250Z,79.48
2019-01-21T03:01:05.751Z,80.22
2019-01-21T03:03:35.412Z,80.75
2019-01-21T03:06:05.117Z,80.81
2019-01-21T03:08:40.789Z,80.67
2019-01-21T03:11:45.593Z,80.22
2019-01-21T03:14:24.416Z,80.79
2019-01-21T03:17:02.838Z,80.83
2019-01-21T03:19:41.520Z,80.17
2019-01-21T03:22:14.173Z,80.74
2019-01-21T03:24:58.593Z,80.81
2019-01-21T03:27:51.227Z,80.60
2019-01-21T03:30:57.277Z,80.21
2019-01-21T03:33:39.208Z,80.36
2019-01-21T03:36:23.930Z,80.25
2019-01-21T03:39:11.929Z,80.14
2019-01-21T03:41:47.458Z,80.63
2019-01-21T03:44:19.581Z,80.13
2019-01-21T03:46:52.643Z,80.12
2019-01-21T03:49:28.056Z,80.20
2019-01-21T03:52:20.529Z,80.49
2019-01-21T03:54:47.848Z,80.77
2019-01-21T03:57:17.075Z,80.53
2019-01-21T04:00:01.512Z,80.47
2019-01-21T04:02:56.714Z,80.87
2019-01-21T04:05:35.620Z,80.68
2019-01-21T04:08:17.393Z,80.58
2019-01-21T04:10:57.303Z,80.89
2019-01-21T04:13:27.027Z,81.01
2019-01-21T04:16:16.863Z,81.05
2019-01-21T04:18:58.290Z,81.26
2019-01-21T04:21:33.696Z,81.00
2019-01-21T04:24:12.212Z,80.68
2019-01-21T04:27:03.046Z,80.72
2019-01-21T04:29:52.578Z,80.70
2019-01-21T04:32:34.374Z,80.24
2019-01-21T04:35:20.563Z,79.82
2019-01-21T04:37:56.818Z,80.27
2019-01-21T04:40:29.246Z,80.21
2019-01-21T04:43:08.171Z,80.80
2019-01-21T04:45:47.002Z,80.45
2019-01-21T04:48:23.661Z,80.69
2019-01-21T04:50:59.410Z,80.16
2019-01-21T04:53:57.818Z,79.73
2019-01-21T04:56:42.307Z,80.25
2019-01-21T04:59:28.176Z,79.30
2019-01-21T05:02:00.736Z,80.07
2019-01-21T05:04:36.210Z,80.03
2019-01-21T05:07:11.881Z,80.03
2019-01-21T05:09:53.329Z,80.07
2019-01-21T05:12:40.609Z,80.54
2019-01-21T05:15:28.322Z,80.68
2019-01-21T05:18:21.852Z,80.74
2019-01-21T05:21:06.856Z,80.72
2019-01-21T05:23:39.259Z,80.99
2019-01-21T05:26:19.511Z,80.49
2019-01-21T05:28:54.900Z,80.43
2019-01-21T05:31:36.077Z,80.38
2019-01-21T05:34:08.878Z,80.19
2019-01-21T05:36:40.085Z,80.70
2019-01-21T05:39:31.199Z,80.33
2019-01-21T05:42:16.154Z,80.18
2019-01-21T05:45:16.182Z,80.85
2019-01-21T05:47:54.855Z,79.93
2019-01-21T05:50:39.621Z,79.96
2019-01-21T05:53:31.863Z,79.85
2019-01-21T05:56:01.469Z,79.40
2019-01-21T05:58:36.484Z,80.07
2019-01-21T06:01:15.719Z,80.56
2019-01-21T06:03:45.381Z,80.68
2019-01-21T06:06:24.181Z,80.63
2019-01-21T06:09:15.308Z,80.36
2019-01-21T06:11:54.226Z,80.14
2019-01-21T06:14:36.225Z,79.98
2019-01-21T06:17:11.582Z,79.46
2019-01-21T06:19:52.610Z,79.96
2019-01-21T06:22:31.189Z,80.69
2019-01-21T06:25:06.893Z,80.68
2019-01-21T06:28:00.413Z,80.34
2019-01-21T06:30:47.782Z,79.67
2019-01-21T06:33:35.577Z,79.68
2019-01-21T06:36:10.986Z,79.43
2019-01-21T06:39:18.747Z,79.92
2019-01-21T06:42:06.755Z,80.09
2019-01-21T06:44:45.432Z,79.40
2019-01-21T06:47:30.110Z,79.68
2019-01-21T06:50:08.660Z,79.37
2019-01-21T06:52:38.255Z,79.88
2019-01-21T06:55:20.153Z,79.42
2019-01-21T06:58:06.354Z,79.68
2019-01-21T07:00:55.825Z,79.88
2019-01-21T07:03:59.222Z,80.31
2019-01-21T07:06:41.169Z,80.72
2019-01-21T07:09:10.783Z,80.37
2019-01-21T07:11:57.117Z,81.22
2019-01-21T07:14:37.328Z,80.89
2019-01-21T07:17:13.090Z,80.04
2019-01-21T07:19:57.772Z,80.22
2019-01-21T07:22:31.218Z,79.19
2019-01-21T07:25:27.849Z,79.32
2019-01-21T07:28:18.360Z,79.97
2019-01-21T07:30:48.092Z,80.27
2019-01-21T07:33:29.812Z,80.43
2019-01-21T07:36:14.531Z,79.78
2019-01-21T07:38:58.713Z,79.43
2019-01-21T07:41:31.080Z,80.02
2019-01-21T07:44:09.949Z,80.56
2019-01-21T07:47:14.103Z,80.88
2019-01-21T07:49:44.309Z,81.38
2019-01-21T07:52:49.118Z,80.46
2019-01-21T07:55:42.161Z,80.37
2019-01-21T07:58:36.060Z,80.09
2019-01-21T08:01:22.320Z,79.72
2019-01-21T08:04:00.841Z,80.46
2019-01-21T08:06:45.791Z,80.66
2019-01-21T08:09:15.440Z,80.36
2019-01-21T08:11:47.898Z,80.21
2019-01-21T08:14:29.014Z,79.57
2019-01-21T08:17:07.342Z,79.37
2019-01-21T08:19:52.003Z,79.63
2019-01-21T08:22:39.699Z,80.12
2019-01-21T08:25:24.752Z,79.54
2019-01-21T08:28:14.020Z,80.04
2019-01-21T08:30:46.672Z,80.63
2019-01-21T08:33:50.011Z,80.02
2019-01-21T08:36:19.677Z,80.12
2019-01-21T08:38:52.328Z,80.66
2019-01-21T08:41:24.703Z,80.30
2019-01-21T08:44:14.154Z,80.30
2019-01-21T08:47:01.785Z,80.25
2019-01-21T08:49:37.530Z,80.79
2019-01-21T08:52:22.429Z,81.03
2019-01-21T08:54:52.061Z,81.21
2019-01-21T08:57:21.701Z,81.24
2019-01-21T08:59:54.367Z,81.52
2019-01-21T09:02:26.587Z,81.35
2019-01-21T09:04:56.207Z,80.95
2019-01-21T09:07:33.257Z,80.67
2019-01-21T09:10:19.433Z,81.12
2019-01-21T09:12:58.402Z,80.98
2019-01-21T09:15:30.777Z,80.87
2019-01-21T09:18:00.427Z,80.62
2019-01-21T09:20:52.559Z,80.71
2019-01-21T09:23:22.345Z,80.61
2019-01-21T09:26:00.809Z,80.74
2019-01-21T09:28:39.455Z,80.08
2019-01-21T09:31:24.183Z,79.90
2019-01-21T09:34:10.964Z,79.82
2019-01-21T09:37:10.485Z,79.83
2019-01-21T09:40:07.679Z,79.83
2019-01-21T09:42:40.333Z,79.62
2019-01-21T09:45:12.723Z,79.67
2019-01-21T09:47:38.330Z,79.09
2019-01-21T09:50:04.146Z,79.28
2019-01-21T09:52:30.250Z,78.90
2019-01-21T09:54:56.362Z,78.93
2019-01-21T09:57:22.449Z,78.72
2019-01-21T09:59:49.950Z,78.64
2019-01-21T10:02:19.905Z,78.06
2019-01-21T10:04:46.133Z,78.24
2019-01-21T10:07:21.601Z,78.22
2019-01-21T10:10:07.817Z,77.83
2019-01-21T10:12:46.432Z,77.52
2019-01-21T10:15:22.068Z,77.50
2019-01-21T10:17:51.734Z,77.23
2019-01-21T10:20:24.401Z,77.36
2019-01-21T10:23:00.035Z,77.15
2019-01-21T10:25:55.687Z,76.96
2019-01-21T10:28:45.167Z,76.80
2019-01-21T10:31:20.815Z,76.86
2019-01-21T10:34:05.772Z,76.55
2019-01-21T10:36:51.869Z,76.11
2019-01-21T10:39:49.974Z,75.91
2019-01-21T10:42:39.702Z,75.66
2019-01-21T10:45:27.547Z,75.11
2019-01-21T10:47:57.186Z,75.02
2019-01-21T10:50:39.101Z,74.86
2019-01-21T10:53:39.326Z,74.66
2019-01-21T10:56:17.913Z,74.99
2019-01-21T10:59:14.543Z,74.64
2019-01-21T11:01:47.144Z,74.84
2019-01-21T11:04:38.199Z,74.67
2019-01-21T11:07:16.744Z,75.21
2019-01-21T11:09:55.431Z,74.60
2019-01-21T11:12:34.161Z,74.19
2019-01-21T11:15:13.040Z,74.15
2019-01-21T11:17:45.680Z,74.13
2019-01-21T11:20:24.114Z,74.14
2019-01-21T11:23:08.775Z,74.30
2019-01-21T11:25:57.497Z,73.90
2019-01-21T11:28:27.107Z,74.06
2019-01-21T11:31:23.684Z,73.77
2019-01-21T11:34:20.065Z,73.51
2019-01-21T11:36:55.830Z,73.17
2019-01-21T11:39:46.112Z,73.71
2019-01-21T11:42:22.298Z,73.45
2019-01-21T11:45:08.638Z,72.69
2019-01-21T11:47:43.912Z,72.76
2019-01-21T11:50:40.898Z,72.99
2019-01-21T11:53:10.551Z,72.26
2019-01-21T11:55:46.191Z,72.28
2019-01-21T11:58:34.089Z,72.48
2019-01-21T12:01:12.788Z,72.11
2019-01-21T12:03:57.379Z,72.26
2019-01-21T12:06:27.023Z,71.43
2019-01-21T12:09:18.005Z,71.50
2019-01-21T12:11:50.455Z,71.28
2019-01-21T12:14:20.065Z,71.60
2019-01-21T12:16:49.692Z,70.38
2019-01-21T12:19:37.420Z,70.91
2019-01-21T12:22:24.106Z,70.97
2019-01-21T12:24:52.718Z,70.93
2019-01-21T12:27:43.614Z,71.04
2019-01-21T12:30:28.238Z,71.56
2019-01-21T12:33:22.295Z,71.03
2019-01-21T12:35:57.417Z,71.12
2019-01-21T12:38:30.059Z,70.69
2019-01-21T12:41:21.551Z,70.86
2019-01-21T12:43:59.829Z,70.37
2019-01-21T12:46:47.509Z,69.61
2019-01-21T12:49:26.185Z,70.05
2019-01-21T12:52:12.086Z,70.63
2019-01-21T12:54:44.249Z,70.30
2019-01-21T12:57:16.835Z,70.20
2019-01-21T12:59:46.536Z,70.20
2019-01-21T13:02:22.308Z,70.68
2019-01-21T13:04:58.033Z,70.84
2019-01-21T13:07:30.171Z,71.11
2019-01-21T13:10:14.475Z,71.26
2019-01-21T13:13:05.242Z,70.13
2019-01-21T13:15:43.689Z,71.17
2019-01-21T13:18:28.131Z,71.27
2019-01-21T13:21:34.658Z,71.46
2019-01-21T13:24:00.887Z,71.55
2019-01-21T13:26:36.511Z,71.65
2019-01-21T13:29:09.155Z,71.44
2019-01-21T13:31:51.224Z,71.75
2019-01-21T13:34:38.799Z,72.48
2019-01-21T13:37:24.746Z,72.52
2019-01-21T13:40:28.217Z,72.78
2019-01-21T13:43:18.272Z,72.56
2019-01-21T13:45:59.996Z,72.67
2019-01-21T13:48:32.693Z,73.07
2019-01-21T13:51:02.320Z,73.38
2019-01-21T13:53:51.865Z,73.47
2019-01-21T13:56:21.493Z,73.38
2019-01-21T13:59:12.008Z,73.61
2019-01-21T14:01:41.644Z,73.51
2019-01-21T14:04:35.544Z,73.88
2019-01-21T14:07:10.558Z,74.01
2019-01-21T14:09:48.854Z,73.80
2019-01-21T14:12:25.435Z,74.41
2019-01-21T14:15:21.184Z,74.08
2019-01-21T14:17:59.951Z,74.37
2019-01-21T14:20:29.579Z,74.02
2019-01-21T14:23:08.343Z,74.59
2019-01-21T14:25:37.959Z,74.48
2019-01-21T14:28:15.287Z,73.89
2019-01-21T14:30:50.926Z,74.49
2019-01-21T14:33:32.702Z,74.97
2019-01-21T14:36:08.063Z,74.92
2019-01-21T14:38:46.726Z,75.10
2019-01-21T14:41:35.662Z,74.55
2019-01-21T14:44:26.609Z,74.35
2019-01-21T14:46:58.714Z,75.20
2019-01-21T14:49:43.457Z,75.42
2019-01-21T14:52:22.290Z,75.24
2019-01-21T14:54:54.627Z,75.86
2019-01-21T14:57:48.149Z,75.57
2019-01-21T15:00:31.370Z,75.40
2019-01-21T15:03:03.986Z,75.33
2019-01-21T15:05:48.985Z,75.58
2019-01-21T15:08:18.661Z,75.60
2019-01-21T15:10:57.321Z,76.08
2019-01-21T15:13:45.334Z,75.97
2019-01-21T15:16:23.986Z,75.83
2019-01-21T15:18:53.602Z,76.34
2019-01-21T15:21:42.821Z,76.60
2019-01-21T15:24:33.617Z,77.12
2019-01-21T15:27:09.038Z,77.03
2019-01-21T15:29:50.675Z,77.04
2019-01-21T15:32:32.707Z,77.13
2019-01-21T15:35:21.695Z,77.60
2019-01-21T15:38:09.660Z,77.81
2019-01-21T15:40:59.172Z,77.59
2019-01-21T15:43:44.188Z,77.35
2019-01-21T15:46:16.618Z,77.73
2019-01-21T15:48:48.982Z,77.65
2019-01-21T15:51:41.259Z,78.29
2019-01-21T15:54:17.016Z,77.87
2019-01-21T15:56:55.431Z,78.15
2019-01-21T15:59:44.911Z,78.23
2019-01-21T16:02:17.759Z,78.79
2019-01-21T16:04:53.569Z,78.99
2019-01-21T16:07:28.805Z,79.58
2019-01-21T16:10:10.572Z,80.02
2019-01-21T16:12:49.367Z,79.85
2019-01-21T16:15:42.230Z,79.76
2019-01-21T16:18:20.957Z,80.06
2019-01-21T16:21:13.659Z,80.43
2019-01-21T16:24:00.973Z,80.46
2019-01-21T16:26:33.255Z,80.41
2019-01-21T16:29:07.928Z,80.14
2019-01-21T16:31:33.827Z,80.37
2019-01-21T16:34:15.276Z,80.30
2019-01-21T16:36:45.735Z,79.89
2019-01-21T16:39:15.368Z,80.13
2019-01-21T16:41:45.022Z,79.62
2019-01-21T16:44:13.692Z,79.36
2019-01-21T16:46:40.897Z,80.26
2019-01-21T16:49:07.968Z,80.44
2019-01-21T16:51:33.954Z,80.71
2019-01-21T16:53:59.859Z,80.90
2019-01-21T16:56:25.713Z,80.86
2019-01-21T16:58:51.515Z,80.71
2019-01-21T17:01:17.347Z,80.92
2019-01-21T17:03:43.478Z,80.39
2019-01-21T17:06:10.050Z,80.39
2019-01-21T17:08:35.875Z,80.54
2019-01-21T17:11:01.700Z,80.57
2019-01-21T17:13:27.571Z,80.59
2019-01-21T17:15:56.056Z,80.77
2019-01-21T17:18:21.849Z,80.89
2019-01-21T17:20:47.664Z,80.71
2019-01-21T17:23:13.485Z,80.47
2019-01-21T17:25:39.307Z,80.83
2019-01-21T17:28:08.793Z,80.95
2019-01-21T17:30:36.134Z,80.91
2019-01-21T17:33:01.983Z,80.62
2019-01-21T17:35:27.802Z,80.41
2019-01-21T17:37:53.611Z,80.07
2019-01-21T17:40:19.454Z,80.09
2019-01-21T17:42:45.296Z,79.94
2019-01-21T17:45:13.714Z,80.07
2019-01-21T17:47:39.643Z,80.16
2019-01-21T17:50:08.967Z,80.32
2019-01-21T17:52:34.788Z,80.70
2019-01-21T17:55:00.620Z,80.34
2019-01-21T17:57:26.462Z,80.29
2019-01-21T17:59:53.727Z,80.67
2019-01-21T18:02:19.730Z,80.67
2019-01-21T18:04:45.580Z,80.69
2019-01-21T18:07:11.443Z,80.89
2019-01-21T18:09:37.251Z,80.72
2019-01-21T18:12:03.091Z,81.09
2019-01-21T18:14:31.789Z,81.27
2019-01-21T18:16:57.601Z,80.99
2019-01-21T18:19:23.460Z,81.17
2019-01-21T18:21:52.174Z,81.16
2019-01-21T18:24:17.978Z,80.36
2019-01-21T18:26:46.208Z,80.86
2019-01-21T18:29:12.019Z,81.07
2019-01-21T18:31:37.921Z,81.03
2019-01-21T18:34:03.759Z,80.96
2019-01-21T18:36:29.565Z,80.62
2019-01-21T18:39:03.083Z,80.74
2019-01-21T18:41:28.930Z,80.51
2019-01-21T18:43:54.814Z,80.76
2019-01-21T18:46:20.669Z,80.79
2019-01-21T18:48:49.245Z,80.72
2019-01-21T18:51:15.051Z,80.68
2019-01-21T18:53:40.872Z,80.58
2019-01-21T18:56:06.702Z,80.83
2019-01-21T18:58:32.495Z,80.56
2019-01-21T19:00:58.341Z,80.34
2019-01-21T19:03:26.252Z,80.48
2019-01-21T19:05:52.067Z,80.77
2019-01-21T19:08:17.919Z,80.15
2019-01-21T19:10:43.737Z,80.43
2019-01-21T19:13:11.955Z,80.30
2019-01-21T19:15:37.776Z,80.07
2019-01-21T19:18:03.580Z,80.22
2019-01-21T19:20:29.410Z,80.26
2019-01-21T19:22:55.255Z,80.71
2019-01-21T19:25:22.114Z,81.06
2019-01-21T19:27:47.936Z,81.49
2019-01-21T19:30:16.680Z,81.46
2019-01-21T19:32:45.877Z,81.52
2019-01-21T19:35:15.899Z,81.82
2019-01-21T19:37:43.609Z,81.47
2019-01-21T19:40:14.826Z,81.35
2019-01-21T19:42:41.115Z,81.49
2019-01-21T19:45:10.410Z,80.85
2019-01-21T19:47:36.218Z,81.08
2019-01-21T19:50:07.240Z,80.67
2019-01-21T19:52:33.181Z,80.40
2019-01-21T19:55:04.696Z,80.34
2019-01-21T19:57:30.764Z,80.29
2019-01-21T19:59:56.594Z,80.27
2019-01-21T20:02:22.617Z,79.81
2019-01-21T20:04:48.430Z,79.77
2019-01-21T20:07:14.235Z,79.02
2019-01-21T20:09:40.622Z,78.44
2019-01-21T20:12:06.386Z,78.20
2019-01-21T20:14:40.924Z,77.82
2019-01-21T20:17:08.627Z,77.71
2019-01-21T20:19:34.430Z,77.40
2019-01-21T20:22:07.147Z,76.76
2019-01-21T20:24:30.666Z,76.51
2019-01-21T20:26:56.661Z,76.36
2019-01-21T20:29:22.484Z,76.38
2019-01-21T20:31:48.350Z,75.73
2019-01-21T20:34:16.583Z,75.69
2019-01-21T20:36:44.415Z,76.22
2019-01-21T20:39:12.181Z,74.82
2019-01-21T20:41:38.228Z,74.38
2019-01-21T20:44:04.248Z,74.49
2019-01-21T20:46:30.099Z,74.67
2019-01-21T20:48:55.909Z,75.03
2019-01-21T20:51:21.729Z,75.00
2019-01-21T20:53:47.661Z,74.53
2019-01-21T20:56:13.476Z,74.47
2019-01-21T20:58:39.300Z,74.47
2019-01-21T21:01:05.155Z,75.00
2019-01-21T21:03:33.571Z,75.38
2019-01-21T21:06:02.352Z,75.57
2019-01-21T21:08:28.183Z,75.20
2019-01-21T21:10:54.021Z,75.15
2019-01-21T21:13:19.919Z,74.70
2019-01-21T21:15:45.843Z,75.46
2019-01-21T21:18:12.703Z,75.45
2019-01-21T21:20:38.628Z,76.00
2019-01-21T21:23:06.414Z,75.76
2019-01-21T21:25:32.225Z,76.00
2019-01-21T21:27:58.034Z,75.58
2019-01-21T21:30:26.455Z,76.12
2019-01-21T21:32:52.279Z,76.32
2019-01-21T21:35:18.614Z,77.55
2019-01-21T21:37:44.470Z,77.65
2019-01-21T21:40:18.507Z,77.69
2019-01-21T21:42:44.504Z,77.56
2019-01-21T21:45:12.115Z,77.64
2019-01-21T21:47:37.974Z,77.34
2019-01-21T21:50:08.028Z,76.77
2019-01-21T21:52:34.039Z,76.90
2019-01-21T21:54:59.847Z,77.64
2019-01-21T21:57:25.667Z,77.01
2019-01-21T21:59:51.509Z,76.87
2019-01-21T22:02:17.398Z,76.84
2019-01-21T22:04:43.220Z,77.22
2019-01-21T22:07:09.365Z,77.01
2019-01-21T22:09:35.190Z,76.43
2019-01-21T22:12:04.835Z,76.83
2019-01-21T22:14:30.649Z,77.16
2019-01-21T22:16:56.528Z,76.66
2019-01-21T22:19:22.326Z,76.58
2019-01-21T22:21:48.535Z,75.14
2019-01-21T22:24:14.391Z,74.50
2019-01-21T22:26:40.274Z,74.74
2019-01-21T22:29:06.102Z,75.94
2019-01-21T22:31:34.918Z,76.78
2019-01-21T22:34:00.823Z,76.31
2019-01-21T22:36:29.124Z,76.56
2019-01-21T22:38:54.967Z,76.48
2019-01-21T22:41:22.310Z,76.50
2019-01-21T22:43:49.063Z,76.07
2019-01-21T22:46:17.879Z,75.93
2019-01-21T22:48:43.708Z,75.92
2019-01-21T22:51:09.514Z,75.97
2019-01-21T22:53:35.915Z,76.21
2019-01-21T22:56:03.882Z,75.86
2019-01-21T22:58:29.675Z,75.13
2019-01-21T23:01:00.529Z,75.61
2019-01-21T23:03:26.401Z,75.02
2019-01-21T23:05:52.199Z,74.13
2019-01-21T23:08:18.303Z,73.30
2019-01-21T23:10:44.119Z,73.99
2019-01-21T23:13:09.954Z,76.02
2019-01-21T23:15:37.655Z,75.15
2019-01-21T23:18:04.449Z,75.17
2019-01-21T23:20:30.787Z,74.17
2019-01-21T23:22:56.627Z,74.84
2019-01-21T23:25:22.825Z,75.50
2019-01-21T23:27:48.634Z,74.04
2019-01-21T23:30:19.372Z,73.95
2019-01-21T23:32:45.178Z,75.42
2019-01-21T23:35:14.197Z,74.89
2019-01-21T23:37:41.262Z,75.45
2019-01-21T23:40:09.165Z,75.12
2019-01-21T23:42:37.105Z,76.47
2019-01-21T23:45:06.142Z,74.20
2019-01-21T23:47:31.956Z,73.68
2019-01-21T23:49:57.761Z,74.72
2019-01-21T23:52:23.824Z,75.36
2019-01-21T23:54:49.658Z,74.47
2019-01-21T23:57:15.474Z,74.82
2019-01-21T23:59:41.309Z,74.76
